AFL1335 ULAA-UUEE
Flight info
| Callsign | AFL1335 |
|---|---|
| Flight time | 1h 24m |
| Altitude | 36000 |
| Route | ABELU3K ABELU T825 UREPI P65 ROMTA ROMTA3E |
| Aircraft | A320/M-SDE3FGHIRWY/LB1 |
Departure
| Time | 2026-04-23 10:33 |
|---|---|
| Airport | Talagi Airport (ULAA) |
Arrival
| Time | 2026-04-23 11:57 |
|---|---|
| Airport | Sheremetyevo International Airport (UUEE) |
| Time | Latitude | Longitude | Altitude | Speed | Heading |
|---|---|---|---|---|---|
| 2026-04-23 10:02 | 64.59660 | 40.71479 | 40 ft | 0 kts | 186° |
| 2026-04-23 10:20 | 64.59672 | 40.71482 | 40 ft | 4 kts | 186° |
| 2026-04-23 10:20 | 64.59698 | 40.71483 | 37 ft | 4 kts | 160° |
| 2026-04-23 10:21 | 64.59716 | 40.71451 | 40 ft | 4 kts | 107° |
| 2026-04-23 10:21 | 64.59719 | 40.71434 | 40 ft | 0 kts | 96° |
| 2026-04-23 10:25 | 64.59718 | 40.71436 | 40 ft | 1 kts | 96° |
| 2026-04-23 10:25 | 64.59715 | 40.71505 | 40 ft | 5 kts | 96° |
| 2026-04-23 10:25 | 64.59711 | 40.71599 | 40 ft | 6 kts | 96° |
| 2026-04-23 10:25 | 64.59712 | 40.71698 | 37 ft | 7 kts | 71° |
| 2026-04-23 10:26 | 64.59759 | 40.71750 | 40 ft | 8 kts | 1° |
| 2026-04-23 10:26 | 64.59803 | 40.71800 | 40 ft | 6 kts | 68° |
| 2026-04-23 10:26 | 64.59803 | 40.71894 | 40 ft | 5 kts | 92° |
| 2026-04-23 10:26 | 64.59801 | 40.71968 | 40 ft | 5 kts | 94° |
| 2026-04-23 10:27 | 64.59794 | 40.72141 | 40 ft | 14 kts | 97° |
| 2026-04-23 10:27 | 64.59783 | 40.72345 | 40 ft | 12 kts | 96° |
| 2026-04-23 10:27 | 64.59774 | 40.72522 | 40 ft | 10 kts | 96° |
| 2026-04-23 10:27 | 64.59764 | 40.72722 | 40 ft | 14 kts | 96° |
| 2026-04-23 10:28 | 64.59753 | 40.72958 | 39 ft | 14 kts | 96° |
| 2026-04-23 10:28 | 64.59743 | 40.73164 | 40 ft | 12 kts | 96° |
| 2026-04-23 10:28 | 64.59734 | 40.73343 | 40 ft | 11 kts | 96° |
| 2026-04-23 10:28 | 64.59723 | 40.73572 | 40 ft | 16 kts | 97° |
| 2026-04-23 10:29 | 64.59703 | 40.73805 | 40 ft | 14 kts | 99° |
| 2026-04-23 10:29 | 64.59694 | 40.74011 | 39 ft | 12 kts | 96° |
| 2026-04-23 10:29 | 64.59704 | 40.74172 | 39 ft | 9 kts | 40° |
| 2026-04-23 10:29 | 64.59766 | 40.74196 | 40 ft | 6 kts | 6° |
| 2026-04-23 10:30 | 64.59769 | 40.74197 | 40 ft | 0 kts | 6° |
| 2026-04-23 10:30 | 64.59791 | 40.74202 | 40 ft | 4 kts | 6° |
| 2026-04-23 10:30 | 64.59841 | 40.74215 | 39 ft | 9 kts | 6° |
| 2026-04-23 10:31 | 64.59903 | 40.74175 | 36 ft | 10 kts | 301° |
| 2026-04-23 10:31 | 64.59910 | 40.74096 | 35 ft | 0 kts | 275° |
| 2026-04-23 10:32 | 64.59910 | 40.74095 | 35 ft | 1 kts | 275° |
| 2026-04-23 10:32 | 64.59927 | 40.73746 | 35 ft | 56 kts | 277° |
| 2026-04-23 10:32 | 64.59997 | 40.72317 | 35 ft | 119 kts | 276° |
| 2026-04-23 10:32 | 64.60103 | 40.70035 | 136 ft | 155 kts | 277° |
| 2026-04-23 10:33 | 64.60207 | 40.67540 | 771 ft | 155 kts | 284° |
| 2026-04-23 10:33 | 64.60335 | 40.64907 | 1278 ft | 173 kts | 282° |
| 2026-04-23 10:33 | 64.60486 | 40.61947 | 1540 ft | 197 kts | 282° |
| 2026-04-23 10:33 | 64.60653 | 40.58589 | 1912 ft | 220 kts | 281° |
| 2026-04-23 10:34 | 64.60830 | 40.54927 | 2516 ft | 233 kts | 281° |
| 2026-04-23 10:34 | 64.61015 | 40.51122 | 3299 ft | 240 kts | 281° |
| 2026-04-23 10:34 | 64.61188 | 40.47206 | 4080 ft | 247 kts | 276° |
| 2026-04-23 10:34 | 64.60768 | 40.43237 | 4835 ft | 265 kts | 242° |
| 2026-04-23 10:35 | 64.59368 | 40.40367 | 5658 ft | 278 kts | 205° |
| 2026-04-23 10:35 | 64.57478 | 40.39312 | 6488 ft | 283 kts | 187° |
| 2026-04-23 10:35 | 64.55499 | 40.39142 | 7297 ft | 287 kts | 181° |
| 2026-04-23 10:35 | 64.53490 | 40.39190 | 8073 ft | 291 kts | 180° |
| 2026-04-23 10:36 | 64.51454 | 40.39147 | 8858 ft | 294 kts | 182° |
| 2026-04-23 10:36 | 64.49395 | 40.38923 | 9611 ft | 298 kts | 185° |
| 2026-04-23 10:36 | 64.47345 | 40.38542 | 10317 ft | 300 kts | 186° |
| 2026-04-23 10:36 | 64.45253 | 40.38037 | 10964 ft | 307 kts | 187° |
| 2026-04-23 10:37 | 64.43052 | 40.37435 | 11151 ft | 330 kts | 187° |
| 2026-04-23 10:37 | 64.40694 | 40.36758 | 11352 ft | 350 kts | 188° |
| 2026-04-23 10:37 | 64.38250 | 40.36050 | 11956 ft | 357 kts | 188° |
| 2026-04-23 10:37 | 64.35780 | 40.35342 | 12797 ft | 355 kts | 187° |
| 2026-04-23 10:38 | 64.33312 | 40.34643 | 13413 ft | 362 kts | 187° |
| 2026-04-23 10:38 | 64.30803 | 40.33937 | 14020 ft | 364 kts | 187° |
| 2026-04-23 10:38 | 64.28286 | 40.33232 | 14745 ft | 364 kts | 187° |
| 2026-04-23 10:38 | 64.25768 | 40.32530 | 15427 ft | 365 kts | 187° |
| 2026-04-23 10:39 | 64.23244 | 40.31826 | 16135 ft | 365 kts | 187° |
| 2026-04-23 10:39 | 64.20725 | 40.31126 | 16878 ft | 365 kts | 187° |
| 2026-04-23 10:39 | 64.18193 | 40.30431 | 17519 ft | 367 kts | 187° |
| 2026-04-23 10:39 | 64.15651 | 40.29745 | 18086 ft | 370 kts | 187° |
| 2026-04-23 10:40 | 64.13087 | 40.29050 | 18615 ft | 372 kts | 187° |
| 2026-04-23 10:40 | 64.10512 | 40.28350 | 19142 ft | 374 kts | 187° |
| 2026-04-23 10:40 | 64.07914 | 40.27637 | 19631 ft | 378 kts | 187° |
| 2026-04-23 10:40 | 64.05325 | 40.26919 | 20127 ft | 381 kts | 187° |
| 2026-04-23 10:41 | 64.02650 | 40.26176 | 20621 ft | 384 kts | 187° |
| 2026-04-23 10:41 | 63.99984 | 40.25443 | 21117 ft | 387 kts | 187° |
| 2026-04-23 10:41 | 63.97298 | 40.24711 | 21605 ft | 391 kts | 187° |
| 2026-04-23 10:41 | 63.94622 | 40.23984 | 22024 ft | 396 kts | 187° |
| 2026-04-23 10:42 | 63.91873 | 40.23245 | 22435 ft | 400 kts | 187° |
| 2026-04-23 10:42 | 63.89085 | 40.22496 | 22823 ft | 405 kts | 187° |
| 2026-04-23 10:42 | 63.86271 | 40.21744 | 23259 ft | 407 kts | 187° |
| 2026-04-23 10:42 | 63.83444 | 40.20982 | 23625 ft | 410 kts | 187° |
| 2026-04-23 10:43 | 63.80594 | 40.20204 | 23869 ft | 417 kts | 187° |
| 2026-04-23 10:43 | 63.77697 | 40.19415 | 24183 ft | 421 kts | 187° |
| 2026-04-23 10:43 | 63.74777 | 40.18606 | 24497 ft | 424 kts | 189° |
| 2026-04-23 10:43 | 63.71904 | 40.17144 | 24862 ft | 425 kts | 198° |
| 2026-04-23 10:44 | 63.69087 | 40.15008 | 25191 ft | 427 kts | 199° |
| 2026-04-23 10:44 | 63.66261 | 40.12835 | 25447 ft | 431 kts | 199° |
| 2026-04-23 10:44 | 63.63424 | 40.10648 | 25815 ft | 432 kts | 199° |
| 2026-04-23 10:44 | 63.60568 | 40.08456 | 26163 ft | 434 kts | 199° |
| 2026-04-23 10:45 | 63.57694 | 40.06267 | 26394 ft | 439 kts | 199° |
| 2026-04-23 10:45 | 63.54790 | 40.04060 | 26680 ft | 441 kts | 199° |
| 2026-04-23 10:45 | 63.51883 | 40.01858 | 27075 ft | 442 kts | 199° |
| 2026-04-23 10:45 | 63.48961 | 39.99647 | 27350 ft | 445 kts | 199° |
| 2026-04-23 10:46 | 63.46026 | 39.97428 | 27717 ft | 446 kts | 199° |
| 2026-04-23 10:46 | 63.43080 | 39.95166 | 27948 ft | 449 kts | 200° |
| 2026-04-23 10:46 | 63.40148 | 39.92726 | 28295 ft | 450 kts | 201° |
| 2026-04-23 10:46 | 63.37228 | 39.90161 | 28528 ft | 453 kts | 202° |
| 2026-04-23 10:47 | 63.34291 | 39.87519 | 28742 ft | 457 kts | 202° |
| 2026-04-23 10:47 | 63.31338 | 39.84862 | 28979 ft | 460 kts | 202° |
| 2026-04-23 10:47 | 63.28361 | 39.82211 | 29188 ft | 463 kts | 202° |
| 2026-04-23 10:47 | 63.25353 | 39.79570 | 29432 ft | 465 kts | 202° |
| 2026-04-23 10:48 | 63.22333 | 39.76959 | 29641 ft | 468 kts | 202° |
| 2026-04-23 10:48 | 63.19294 | 39.74364 | 29883 ft | 468 kts | 201° |
| 2026-04-23 10:48 | 63.16241 | 39.71779 | 30058 ft | 471 kts | 202° |
| 2026-04-23 10:48 | 63.13176 | 39.69195 | 30244 ft | 473 kts | 201° |
| 2026-04-23 10:49 | 63.10098 | 39.66593 | 30435 ft | 474 kts | 202° |
| 2026-04-23 10:49 | 63.07058 | 39.64012 | 30674 ft | 474 kts | 201° |
| 2026-04-23 10:49 | 63.03988 | 39.61403 | 30961 ft | 473 kts | 202° |
| 2026-04-23 10:49 | 63.00915 | 39.58793 | 31227 ft | 473 kts | 202° |
| 2026-04-23 10:50 | 62.97852 | 39.56194 | 31531 ft | 471 kts | 202° |
| 2026-04-23 10:50 | 62.94784 | 39.53597 | 31698 ft | 474 kts | 201° |
| 2026-04-23 10:50 | 62.91704 | 39.50999 | 31915 ft | 475 kts | 202° |
| 2026-04-23 10:50 | 62.88614 | 39.48406 | 32118 ft | 476 kts | 201° |
| 2026-04-23 10:51 | 62.85524 | 39.45826 | 32392 ft | 475 kts | 201° |
| 2026-04-23 10:51 | 62.82435 | 39.43253 | 32642 ft | 475 kts | 201° |
| 2026-04-23 10:51 | 62.79351 | 39.40685 | 32925 ft | 474 kts | 201° |
| 2026-04-23 10:51 | 62.76269 | 39.38122 | 33176 ft | 475 kts | 202° |
| 2026-04-23 10:52 | 62.73179 | 39.35562 | 33428 ft | 475 kts | 201° |
| 2026-04-23 10:52 | 62.70093 | 39.33012 | 33647 ft | 475 kts | 201° |
| 2026-04-23 10:52 | 62.67000 | 39.30455 | 33846 ft | 475 kts | 201° |
| 2026-04-23 10:52 | 62.63908 | 39.27906 | 34034 ft | 475 kts | 201° |
| 2026-04-23 10:53 | 62.60813 | 39.25356 | 34214 ft | 476 kts | 201° |
| 2026-04-23 10:53 | 62.57718 | 39.22805 | 34379 ft | 476 kts | 201° |
| 2026-04-23 10:53 | 62.54616 | 39.20252 | 34553 ft | 477 kts | 201° |
| 2026-04-23 10:53 | 62.51514 | 39.17717 | 34723 ft | 477 kts | 201° |
| 2026-04-23 10:54 | 62.48409 | 39.15189 | 34896 ft | 477 kts | 201° |
| 2026-04-23 10:54 | 62.45307 | 39.12669 | 35069 ft | 477 kts | 201° |
| 2026-04-23 10:54 | 62.42200 | 39.10159 | 35233 ft | 477 kts | 201° |
| 2026-04-23 10:54 | 62.39093 | 39.07657 | 35402 ft | 476 kts | 201° |
| 2026-04-23 10:55 | 62.35990 | 39.05164 | 35547 ft | 477 kts | 201° |
| 2026-04-23 10:55 | 62.32931 | 39.02705 | 35584 ft | 475 kts | 201° |
| 2026-04-23 10:55 | 62.26748 | 38.97732 | 35596 ft | 474 kts | 201° |
| 2026-04-23 10:56 | 62.20574 | 38.92790 | 35590 ft | 473 kts | 201° |
| 2026-04-23 10:56 | 62.14401 | 38.87869 | 35590 ft | 474 kts | 201° |
| 2026-04-23 10:57 | 62.08225 | 38.82967 | 35592 ft | 474 kts | 201° |
| 2026-04-23 10:57 | 62.02034 | 38.78089 | 35589 ft | 474 kts | 201° |
| 2026-04-23 10:58 | 61.95836 | 38.73240 | 35602 ft | 475 kts | 201° |
| 2026-04-23 10:58 | 61.89536 | 38.69095 | 35604 ft | 475 kts | 192° |
| 2026-04-23 10:59 | 61.83058 | 38.66337 | 35606 ft | 475 kts | 191° |
| 2026-04-23 10:59 | 61.76586 | 38.63607 | 35608 ft | 474 kts | 192° |
| 2026-04-23 11:00 | 61.70118 | 38.60859 | 35591 ft | 474 kts | 192° |
| 2026-04-23 11:00 | 61.63691 | 38.58143 | 35581 ft | 475 kts | 192° |
| 2026-04-23 11:01 | 61.57208 | 38.55438 | 35585 ft | 475 kts | 191° |
| 2026-04-23 11:01 | 61.50727 | 38.52744 | 35583 ft | 475 kts | 192° |
| 2026-04-23 11:02 | 61.44246 | 38.50052 | 35573 ft | 475 kts | 191° |
| 2026-04-23 11:02 | 61.37765 | 38.47359 | 35560 ft | 475 kts | 192° |
| 2026-04-23 11:03 | 61.31267 | 38.44665 | 35590 ft | 476 kts | 191° |
| 2026-04-23 11:03 | 61.24776 | 38.42003 | 35599 ft | 475 kts | 190° |
| 2026-04-23 11:04 | 61.18217 | 38.40424 | 35590 ft | 474 kts | 186° |
| 2026-04-23 11:04 | 61.11651 | 38.39025 | 35586 ft | 474 kts | 186° |
| 2026-04-23 11:05 | 61.05094 | 38.37653 | 35571 ft | 474 kts | 186° |
| 2026-04-23 11:05 | 60.98528 | 38.36280 | 35565 ft | 474 kts | 186° |
| 2026-04-23 11:06 | 60.88719 | 38.34200 | 35564 ft | 475 kts | 186° |
| 2026-04-23 11:07 | 60.82108 | 38.32813 | 35568 ft | 475 kts | 186° |
| 2026-04-23 11:07 | 60.75576 | 38.31448 | 35576 ft | 475 kts | 186° |
| 2026-04-23 11:08 | 60.69013 | 38.30075 | 35567 ft | 474 kts | 186° |
| 2026-04-23 11:08 | 60.62452 | 38.28723 | 35568 ft | 473 kts | 186° |
| 2026-04-23 11:09 | 60.55902 | 38.27374 | 35562 ft | 473 kts | 186° |
| 2026-04-23 11:09 | 60.50414 | 38.26253 | 35560 ft | 473 kts | 186° |
| 2026-04-23 11:10 | 60.43909 | 38.24929 | 35564 ft | 473 kts | 186° |
| 2026-04-23 11:10 | 60.37363 | 38.23600 | 35551 ft | 472 kts | 186° |
| 2026-04-23 11:11 | 60.30822 | 38.22269 | 35538 ft | 473 kts | 186° |
| 2026-04-23 11:11 | 60.24271 | 38.20951 | 35553 ft | 473 kts | 186° |
| 2026-04-23 11:12 | 60.17725 | 38.19631 | 35555 ft | 473 kts | 186° |
| 2026-04-23 11:12 | 60.11180 | 38.18303 | 35554 ft | 472 kts | 186° |
| 2026-04-23 11:13 | 60.04652 | 38.16991 | 35546 ft | 471 kts | 186° |
| 2026-04-23 11:13 | 59.98118 | 38.15694 | 35535 ft | 471 kts | 186° |
| 2026-04-23 11:14 | 59.91592 | 38.14409 | 35522 ft | 472 kts | 186° |
| 2026-04-23 11:14 | 59.85058 | 38.13109 | 35524 ft | 472 kts | 186° |
| 2026-04-23 11:15 | 59.78556 | 38.11819 | 35526 ft | 472 kts | 186° |
| 2026-04-23 11:15 | 59.71986 | 38.10509 | 35534 ft | 471 kts | 186° |
| 2026-04-23 11:16 | 59.65506 | 38.09240 | 35508 ft | 471 kts | 186° |
| 2026-04-23 11:16 | 59.58978 | 38.07984 | 35511 ft | 472 kts | 186° |
| 2026-04-23 11:17 | 59.52438 | 38.06720 | 35501 ft | 473 kts | 186° |
| 2026-04-23 11:17 | 59.45893 | 38.05450 | 35517 ft | 472 kts | 186° |
| 2026-04-23 11:18 | 59.39351 | 38.04178 | 35535 ft | 472 kts | 186° |
| 2026-04-23 11:18 | 59.32826 | 38.02914 | 35529 ft | 471 kts | 186° |
| 2026-04-23 11:19 | 59.26299 | 38.01691 | 35525 ft | 471 kts | 185° |
| 2026-04-23 11:19 | 59.19759 | 38.00598 | 35529 ft | 472 kts | 185° |
| 2026-04-23 11:20 | 59.13214 | 37.99581 | 35532 ft | 472 kts | 185° |
| 2026-04-23 11:20 | 59.06679 | 37.98540 | 35527 ft | 471 kts | 185° |
| 2026-04-23 11:21 | 59.00197 | 37.97485 | 35512 ft | 470 kts | 185° |
| 2026-04-23 11:21 | 58.93693 | 37.96416 | 35510 ft | 470 kts | 185° |
| 2026-04-23 11:22 | 58.87178 | 37.95374 | 35499 ft | 470 kts | 185° |
| 2026-04-23 11:22 | 58.80660 | 37.94334 | 35495 ft | 470 kts | 185° |
| 2026-04-23 11:23 | 58.74140 | 37.93295 | 35494 ft | 470 kts | 185° |
| 2026-04-23 11:23 | 58.67632 | 37.92266 | 35495 ft | 469 kts | 185° |
| 2026-04-23 11:24 | 58.61133 | 37.91339 | 35505 ft | 467 kts | 184° |
| 2026-04-23 11:24 | 58.54647 | 37.90496 | 35485 ft | 468 kts | 184° |
| 2026-04-23 11:25 | 58.48156 | 37.89642 | 35485 ft | 467 kts | 185° |
| 2026-04-23 11:25 | 58.41652 | 37.88767 | 35467 ft | 469 kts | 185° |
| 2026-04-23 11:26 | 58.35185 | 37.87890 | 35484 ft | 469 kts | 185° |
| 2026-04-23 11:26 | 58.28665 | 37.87001 | 35367 ft | 472 kts | 184° |
| 2026-04-23 11:26 | 58.25401 | 37.86571 | 35122 ft | 469 kts | 184° |
| 2026-04-23 11:27 | 58.22144 | 37.86145 | 34896 ft | 467 kts | 184° |
| 2026-04-23 11:27 | 58.18926 | 37.85721 | 34665 ft | 461 kts | 184° |
| 2026-04-23 11:27 | 58.15728 | 37.85298 | 34433 ft | 461 kts | 185° |
| 2026-04-23 11:27 | 58.12536 | 37.84874 | 34196 ft | 458 kts | 185° |
| 2026-04-23 11:28 | 58.09380 | 37.84454 | 33881 ft | 452 kts | 185° |
| 2026-04-23 11:28 | 58.06242 | 37.84029 | 33305 ft | 451 kts | 185° |
| 2026-04-23 11:28 | 58.03119 | 37.83611 | 32734 ft | 449 kts | 185° |
| 2026-04-23 11:28 | 58.00010 | 37.83202 | 32185 ft | 446 kts | 185° |
| 2026-04-23 11:29 | 57.96931 | 37.82795 | 31667 ft | 442 kts | 184° |
| 2026-04-23 11:29 | 57.93870 | 37.82398 | 31122 ft | 439 kts | 185° |
| 2026-04-23 11:29 | 57.90833 | 37.82007 | 30609 ft | 436 kts | 185° |
| 2026-04-23 11:29 | 57.87818 | 37.81617 | 30093 ft | 433 kts | 185° |
| 2026-04-23 11:30 | 57.84827 | 37.81232 | 29589 ft | 429 kts | 185° |
| 2026-04-23 11:30 | 57.81857 | 37.80844 | 29043 ft | 425 kts | 185° |
| 2026-04-23 11:30 | 57.78938 | 37.80449 | 28600 ft | 418 kts | 185° |
| 2026-04-23 11:30 | 57.76061 | 37.80040 | 28145 ft | 411 kts | 187° |
| 2026-04-23 11:31 | 57.73232 | 37.79626 | 27738 ft | 403 kts | 186° |
| 2026-04-23 11:31 | 57.70461 | 37.79217 | 27294 ft | 397 kts | 185° |
| 2026-04-23 11:31 | 57.67731 | 37.78818 | 26878 ft | 390 kts | 187° |
| 2026-04-23 11:31 | 57.65086 | 37.78434 | 26474 ft | 384 kts | 186° |
| 2026-04-23 11:32 | 57.62441 | 37.78061 | 26069 ft | 378 kts | 186° |
| 2026-04-23 11:32 | 57.59838 | 37.77699 | 25662 ft | 373 kts | 186° |
| 2026-04-23 11:32 | 57.57265 | 37.77342 | 25264 ft | 368 kts | 186° |
| 2026-04-23 11:32 | 57.54729 | 37.76987 | 24842 ft | 364 kts | 186° |
| 2026-04-23 11:33 | 57.52213 | 37.76633 | 24434 ft | 360 kts | 186° |
| 2026-04-23 11:33 | 57.49725 | 37.76277 | 24019 ft | 357 kts | 186° |
| 2026-04-23 11:33 | 57.47259 | 37.75918 | 23605 ft | 354 kts | 186° |
| 2026-04-23 11:33 | 57.44819 | 37.75570 | 23190 ft | 350 kts | 186° |
| 2026-04-23 11:34 | 57.42397 | 37.75247 | 22704 ft | 347 kts | 186° |
| 2026-04-23 11:34 | 57.40001 | 37.74941 | 22299 ft | 342 kts | 186° |
| 2026-04-23 11:34 | 57.37647 | 37.74640 | 21907 ft | 337 kts | 186° |
| 2026-04-23 11:34 | 57.35323 | 37.74341 | 21499 ft | 333 kts | 186° |
| 2026-04-23 11:35 | 57.33027 | 37.74048 | 21109 ft | 328 kts | 186° |
| 2026-04-23 11:35 | 57.30761 | 37.73764 | 20740 ft | 325 kts | 186° |
| 2026-04-23 11:35 | 57.28570 | 37.73167 | 20631 ft | 312 kts | 192° |
| 2026-04-23 11:35 | 57.26482 | 37.72450 | 20569 ft | 299 kts | 193° |
| 2026-04-23 11:36 | 57.24465 | 37.71735 | 20480 ft | 294 kts | 193° |
| 2026-04-23 11:36 | 57.22462 | 37.71010 | 20407 ft | 294 kts | 193° |
| 2026-04-23 11:36 | 57.20456 | 37.70277 | 20337 ft | 295 kts | 193° |
| 2026-04-23 11:36 | 57.18435 | 37.69541 | 20273 ft | 295 kts | 193° |
| 2026-04-23 11:37 | 57.16419 | 37.68807 | 20198 ft | 296 kts | 193° |
| 2026-04-23 11:37 | 57.14413 | 37.68084 | 20119 ft | 292 kts | 193° |
| 2026-04-23 11:37 | 57.12448 | 37.67380 | 20046 ft | 291 kts | 193° |
| 2026-04-23 11:37 | 57.10462 | 37.66670 | 19983 ft | 291 kts | 193° |
| 2026-04-23 11:38 | 57.08475 | 37.65962 | 19908 ft | 292 kts | 193° |
| 2026-04-23 11:38 | 57.06476 | 37.65253 | 19840 ft | 294 kts | 192° |
| 2026-04-23 11:38 | 57.04477 | 37.64546 | 19773 ft | 291 kts | 193° |
| 2026-04-23 11:38 | 57.02471 | 37.63832 | 19701 ft | 296 kts | 192° |
| 2026-04-23 11:39 | 57.00452 | 37.63113 | 19633 ft | 296 kts | 192° |
| 2026-04-23 11:39 | 56.98447 | 37.62401 | 19562 ft | 293 kts | 193° |
| 2026-04-23 11:39 | 56.96454 | 37.61689 | 19493 ft | 291 kts | 193° |
| 2026-04-23 11:39 | 56.94446 | 37.60970 | 19426 ft | 296 kts | 192° |
| 2026-04-23 11:40 | 56.92422 | 37.60250 | 19362 ft | 296 kts | 192° |
| 2026-04-23 11:40 | 56.90407 | 37.59538 | 19281 ft | 293 kts | 193° |
| 2026-04-23 11:40 | 56.88410 | 37.58833 | 18989 ft | 291 kts | 192° |
| 2026-04-23 11:40 | 56.86410 | 37.58130 | 18637 ft | 293 kts | 192° |
| 2026-04-23 11:41 | 56.84404 | 37.57431 | 18280 ft | 294 kts | 192° |
| 2026-04-23 11:41 | 56.82398 | 37.56731 | 17904 ft | 293 kts | 192° |
| 2026-04-23 11:41 | 56.80396 | 37.56029 | 17520 ft | 293 kts | 192° |
| 2026-04-23 11:41 | 56.78401 | 37.55327 | 17158 ft | 292 kts | 192° |
| 2026-04-23 11:42 | 56.76404 | 37.54625 | 16794 ft | 292 kts | 192° |
| 2026-04-23 11:42 | 56.74413 | 37.53929 | 16442 ft | 291 kts | 192° |
| 2026-04-23 11:42 | 56.72432 | 37.53238 | 16108 ft | 289 kts | 191° |
| 2026-04-23 11:42 | 56.70459 | 37.52549 | 15716 ft | 288 kts | 191° |
| 2026-04-23 11:43 | 56.68496 | 37.51864 | 15373 ft | 287 kts | 191° |
| 2026-04-23 11:43 | 56.66539 | 37.51179 | 15026 ft | 286 kts | 191° |
| 2026-04-23 11:43 | 56.64586 | 37.50496 | 14691 ft | 286 kts | 191° |
| 2026-04-23 11:43 | 56.62632 | 37.49813 | 14347 ft | 286 kts | 191° |
| 2026-04-23 11:44 | 56.60681 | 37.49133 | 14003 ft | 286 kts | 191° |
| 2026-04-23 11:44 | 56.58753 | 37.48463 | 13661 ft | 286 kts | 191° |
| 2026-04-23 11:44 | 56.56799 | 37.47782 | 13315 ft | 286 kts | 191° |
| 2026-04-23 11:44 | 56.54842 | 37.47101 | 12941 ft | 287 kts | 191° |
| 2026-04-23 11:45 | 56.52888 | 37.46424 | 12585 ft | 286 kts | 191° |
| 2026-04-23 11:45 | 56.50936 | 37.45750 | 12236 ft | 285 kts | 191° |
| 2026-04-23 11:45 | 56.48990 | 37.45079 | 11889 ft | 284 kts | 191° |
| 2026-04-23 11:45 | 56.47051 | 37.44417 | 11519 ft | 283 kts | 191° |
| 2026-04-23 11:46 | 56.45084 | 37.44188 | 11031 ft | 286 kts | 171° |
| 2026-04-23 11:46 | 56.43167 | 37.45104 | 10530 ft | 285 kts | 162° |
| 2026-04-23 11:46 | 56.41276 | 37.46191 | 9879 ft | 285 kts | 161° |
| 2026-04-23 11:46 | 56.39388 | 37.47291 | 9204 ft | 286 kts | 160° |
| 2026-04-23 11:47 | 56.37494 | 37.48400 | 8495 ft | 286 kts | 159° |
| 2026-04-23 11:47 | 56.35599 | 37.49510 | 7836 ft | 285 kts | 160° |
| 2026-04-23 11:47 | 56.33730 | 37.50603 | 7397 ft | 281 kts | 159° |
| 2026-04-23 11:47 | 56.31875 | 37.51685 | 6989 ft | 280 kts | 159° |
| 2026-04-23 11:48 | 56.30019 | 37.52764 | 6602 ft | 280 kts | 159° |
| 2026-04-23 11:48 | 56.28170 | 37.53838 | 6216 ft | 279 kts | 159° |
| 2026-04-23 11:48 | 56.26320 | 37.54911 | 5830 ft | 279 kts | 159° |
| 2026-04-23 11:48 | 56.24476 | 37.55975 | 5420 ft | 278 kts | 159° |
| 2026-04-23 11:49 | 56.22645 | 37.57036 | 5088 ft | 273 kts | 159° |
| 2026-04-23 11:49 | 56.20877 | 37.58079 | 4952 ft | 261 kts | 155° |
| 2026-04-23 11:49 | 56.19339 | 37.59608 | 4728 ft | 247 kts | 136° |
| 2026-04-23 11:49 | 56.18137 | 37.61677 | 4609 ft | 242 kts | 128° |
| 2026-04-23 11:50 | 56.16964 | 37.63851 | 4470 ft | 243 kts | 129° |
| 2026-04-23 11:50 | 56.15785 | 37.66016 | 4341 ft | 243 kts | 129° |
| 2026-04-23 11:50 | 56.14605 | 37.68174 | 4211 ft | 242 kts | 129° |
| 2026-04-23 11:50 | 56.13425 | 37.70331 | 4079 ft | 242 kts | 129° |
| 2026-04-23 11:51 | 56.12251 | 37.72476 | 3933 ft | 240 kts | 129° |
| 2026-04-23 11:51 | 56.11084 | 37.74610 | 3795 ft | 240 kts | 129° |
| 2026-04-23 11:51 | 56.09752 | 37.76435 | 3659 ft | 246 kts | 153° |
| 2026-04-23 11:51 | 56.08065 | 37.76970 | 3527 ft | 250 kts | 186° |
| 2026-04-23 11:52 | 56.06386 | 37.76193 | 3393 ft | 251 kts | 199° |
| 2026-04-23 11:52 | 56.04729 | 37.75234 | 3307 ft | 250 kts | 199° |
| 2026-04-23 11:52 | 56.03158 | 37.73951 | 3252 ft | 247 kts | 218° |
| 2026-04-23 11:52 | 56.01945 | 37.71841 | 3201 ft | 240 kts | 240° |
| 2026-04-23 11:53 | 56.01242 | 37.69298 | 3131 ft | 220 kts | 261° |
| 2026-04-23 11:53 | 56.00861 | 37.66733 | 3023 ft | 211 kts | 262° |
| 2026-04-23 11:53 | 56.00495 | 37.64212 | 2973 ft | 207 kts | 263° |
| 2026-04-23 11:53 | 56.00150 | 37.61893 | 2976 ft | 182 kts | 263° |
| 2026-04-23 11:54 | 55.99842 | 37.59802 | 2825 ft | 169 kts | 264° |
| 2026-04-23 11:54 | 55.99553 | 37.57829 | 2612 ft | 160 kts | 264° |
| 2026-04-23 11:54 | 55.99282 | 37.55986 | 2432 ft | 152 kts | 265° |
| 2026-04-23 11:54 | 55.99016 | 37.54178 | 2165 ft | 149 kts | 264° |
| 2026-04-23 11:55 | 55.98755 | 37.52401 | 1877 ft | 146 kts | 264° |
| 2026-04-23 11:55 | 55.98498 | 37.50662 | 1550 ft | 145 kts | 263° |
| 2026-04-23 11:55 | 55.98240 | 37.48919 | 1232 ft | 144 kts | 260° |
| 2026-04-23 11:55 | 55.97985 | 37.47197 | 996 ft | 143 kts | 259° |
| 2026-04-23 11:56 | 55.97734 | 37.45482 | 784 ft | 143 kts | 261° |
| 2026-04-23 11:56 | 55.97487 | 37.43776 | 649 ft | 135 kts | 261° |
| 2026-04-23 11:56 | 55.97274 | 37.42342 | 639 ft | 99 kts | 255° |
| 2026-04-23 11:56 | 55.97136 | 37.41448 | 643 ft | 50 kts | 255° |
| 2026-04-23 11:57 | 55.97060 | 37.40943 | 639 ft | 33 kts | 254° |
| 2026-04-23 11:57 | 55.97019 | 37.40675 | 639 ft | 18 kts | 255° |
| 2026-04-23 11:57 | 55.96986 | 37.40438 | 639 ft | 21 kts | 257° |
| 2026-04-23 11:57 | 55.96953 | 37.40192 | 641 ft | 19 kts | 256° |
| 2026-04-23 11:58 | 55.96965 | 37.40065 | 642 ft | 9 kts | 316° |
| 2026-04-23 11:58 | 55.97030 | 37.40022 | 642 ft | 9 kts | 346° |
| 2026-04-23 11:58 | 55.97056 | 37.40011 | 644 ft | 0 kts | 346° |
| 2026-04-23 11:59 | 55.97074 | 37.40003 | 639 ft | 7 kts | 345° |
| 2026-04-23 11:59 | 55.97142 | 37.39970 | 639 ft | 11 kts | 345° |
| 2026-04-23 11:59 | 55.97228 | 37.39929 | 637 ft | 14 kts | 345° |
| 2026-04-23 11:59 | 55.97321 | 37.39896 | 644 ft | 12 kts | 9° |
| 2026-04-23 12:00 | 55.97361 | 37.40026 | 646 ft | 13 kts | 75° |
| 2026-04-23 12:00 | 55.97385 | 37.40185 | 639 ft | 13 kts | 75° |
| 2026-04-23 12:00 | 55.97409 | 37.40348 | 642 ft | 14 kts | 75° |
| 2026-04-23 12:00 | 55.97434 | 37.40516 | 645 ft | 14 kts | 73° |
| 2026-04-23 12:01 | 55.97462 | 37.40697 | 644 ft | 16 kts | 76° |
| 2026-04-23 12:01 | 55.97491 | 37.40895 | 642 ft | 17 kts | 75° |
| 2026-04-23 12:01 | 55.97523 | 37.41109 | 643 ft | 19 kts | 75° |
| 2026-04-23 12:01 | 55.97558 | 37.41341 | 639 ft | 20 kts | 76° |
| 2026-04-23 12:02 | 55.97594 | 37.41578 | 641 ft | 18 kts | 75° |
| 2026-04-23 12:02 | 55.97628 | 37.41805 | 639 ft | 20 kts | 75° |
| 2026-04-23 12:02 | 55.97661 | 37.42029 | 639 ft | 14 kts | 75° |
| 2026-04-23 12:02 | 55.97714 | 37.42124 | 639 ft | 12 kts | 5° |
| 2026-04-23 12:03 | 55.97768 | 37.42103 | 639 ft | 12 kts | 344° |
| 2026-04-23 12:03 | 55.97838 | 37.42068 | 639 ft | 11 kts | 345° |
| 2026-04-23 12:03 | 55.97892 | 37.42007 | 639 ft | 9 kts | 274° |
| 2026-04-23 12:03 | 55.97883 | 37.41932 | 639 ft | 4 kts | 255° |
| 2026-04-23 12:04 | 55.97880 | 37.41915 | 639 ft | 0 kts | 255° |